sensor_id;sensor_type;location;lat;lon;timestamp;temperature;humidity
4354;DHT22;11018;51.258;6.806;2023-05-02T00:00:27;11.50;87.90
4354;DHT22;11018;51.258;6.806;2023-05-02T00:02:53;11.50;88.00
4354;DHT22;11018;51.258;6.806;2023-05-02T00:05:19;11.50;88.30
4354;DHT22;11018;51.258;6.806;2023-05-02T00:07:44;11.50;88.70
4354;DHT22;11018;51.258;6.806;2023-05-02T00:10:10;11.40;88.80
4354;DHT22;11018;51.258;6.806;2023-05-02T00:12:36;11.40;89.80
4354;DHT22;11018;51.258;6.806;2023-05-02T00:15:03;11.30;90.30
4354;DHT22;11018;51.258;6.806;2023-05-02T00:17:29;11.30;91.40
4354;DHT22;11018;51.258;6.806;2023-05-02T00:19:54;11.20;91.90
4354;DHT22;11018;51.258;6.806;2023-05-02T00:22:20;11.20;93.10
4354;DHT22;11018;51.258;6.806;2023-05-02T00:24:46;11.10;93.90
4354;DHT22;11018;51.258;6.806;2023-05-02T00:27:11;11.10;94.70
4354;DHT22;11018;51.258;6.806;2023-05-02T00:29:38;11.10;95.30
4354;DHT22;11018;51.258;6.806;2023-05-02T00:32:05;11.10;94.80
4354;DHT22;11018;51.258;6.806;2023-05-02T00:34:31;11.10;94.30
4354;DHT22;11018;51.258;6.806;2023-05-02T00:36:57;11.00;94.40
4354;DHT22;11018;51.258;6.806;2023-05-02T00:39:22;11.00;95.20
4354;DHT22;11018;51.258;6.806;2023-05-02T00:41:48;10.90;96.20
4354;DHT22;11018;51.258;6.806;2023-05-02T00:44:14;10.80;97.30
4354;DHT22;11018;51.258;6.806;2023-05-02T00:46:39;10.80;98.30
4354;DHT22;11018;51.258;6.806;2023-05-02T00:49:05;10.80;98.70
4354;DHT22;11018;51.258;6.806;2023-05-02T00:51:33;10.80;99.00
4354;DHT22;11018;51.258;6.806;2023-05-02T00:54:00;10.80;99.80
4354;DHT22;11018;51.258;6.806;2023-05-02T00:56:26;10.80;99.90
4354;DHT22;11018;51.258;6.806;2023-05-02T00:58:52;10.80;99.90
4354;DHT22;11018;51.258;6.806;2023-05-02T01:12:58;10.90;99.00
4354;DHT22;11018;51.258;6.806;2023-05-02T01:15:25;10.80;99.50
4354;DHT22;11018;51.258;6.806;2023-05-02T01:17:51;10.80;99.90
4354;DHT22;11018;51.258;6.806;2023-05-02T01:20:22;10.70;99.90
4354;DHT22;11018;51.258;6.806;2023-05-02T01:22:48;10.60;99.90
4354;DHT22;11018;51.258;6.806;2023-05-02T01:25:38;10.60;99.90
4354;DHT22;11018;51.258;6.806;2023-05-02T01:28:20;10.50;99.90
4354;DHT22;11018;51.258;6.806;2023-05-02T01:30:53;10.60;99.90
4354;DHT22;11018;51.258;6.806;2023-05-02T01:33:21;10.60;99.90
4354;DHT22;11018;51.258;6.806;2023-05-02T01:35:49;10.70;99.90
4354;DHT22;11018;51.258;6.806;2023-05-02T01:38:17;10.70;99.90
4354;DHT22;11018;51.258;6.806;2023-05-02T01:40:46;10.80;99.90
4354;DHT22;11018;51.258;6.806;2023-05-02T01:43:15;10.80;99.90
4354;DHT22;11018;51.258;6.806;2023-05-02T01:45:44;10.90;99.90
4354;DHT22;11018;51.258;6.806;2023-05-02T01:48:12;10.90;99.50
4354;DHT22;11018;51.258;6.806;2023-05-02T01:50:40;10.80;99.90
4354;DHT22;11018;51.258;6.806;2023-05-02T01:53:09;10.80;99.90
4354;DHT22;11018;51.258;6.806;2023-05-02T01:55:40;10.80;99.90
4354;DHT22;11018;51.258;6.806;2023-05-02T01:58:08;10.80;99.90
4354;DHT22;11018;51.258;6.806;2023-05-02T02:00:35;10.90;99.90
4354;DHT22;11018;51.258;6.806;2023-05-02T02:03:04;11.00;99.60
4354;DHT22;11018;51.258;6.806;2023-05-02T02:05:32;11.00;97.90
4354;DHT22;11018;51.258;6.806;2023-05-02T02:07:58;11.00;97.20
4354;DHT22;11018;51.258;6.806;2023-05-02T02:10:25;11.00;96.30
4354;DHT22;11018;51.258;6.806;2023-05-02T02:13:00;11.10;96.80
4354;DHT22;11018;51.258;6.806;2023-05-02T02:15:30;11.10;95.60
4354;DHT22;11018;51.258;6.806;2023-05-02T02:18:18;11.20;94.60
4354;DHT22;11018;51.258;6.806;2023-05-02T02:20:46;11.20;94.20
4354;DHT22;11018;51.258;6.806;2023-05-02T02:23:13;11.20;94.30
4354;DHT22;11018;51.258;6.806;2023-05-02T02:25:40;11.20;95.20
4354;DHT22;11018;51.258;6.806;2023-05-02T02:28:06;11.20;94.50
4354;DHT22;11018;51.258;6.806;2023-05-02T02:30:32;11.20;93.80
4354;DHT22;11018;51.258;6.806;2023-05-02T02:32:57;11.30;94.40
4354;DHT22;11018;51.258;6.806;2023-05-02T02:35:27;11.30;93.20
4354;DHT22;11018;51.258;6.806;2023-05-02T02:38:01;11.40;92.90
4354;DHT22;11018;51.258;6.806;2023-05-02T02:40:31;11.40;92.70
4354;DHT22;11018;51.258;6.806;2023-05-02T02:43:35;11.40;92.20
4354;DHT22;11018;51.258;6.806;2023-05-02T02:46:27;11.40;93.20
4354;DHT22;11018;51.258;6.806;2023-05-02T02:49:21;11.40;92.10
4354;DHT22;11018;51.258;6.806;2023-05-02T02:51:50;11.50;92.40
4354;DHT22;11018;51.258;6.806;2023-05-02T02:54:31;11.50;91.90
4354;DHT22;11018;51.258;6.806;2023-05-02T02:57:06;11.50;91.80
4354;DHT22;11018;51.258;6.806;2023-05-02T02:59:45;11.50;91.90
4354;DHT22;11018;51.258;6.806;2023-05-02T03:02:14;11.50;91.90
4354;DHT22;11018;51.258;6.806;2023-05-02T03:04:42;11.60;90.20
4354;DHT22;11018;51.258;6.806;2023-05-02T03:07:09;11.60;91.00
4354;DHT22;11018;51.258;6.806;2023-05-02T03:09:46;11.70;89.40
4354;DHT22;11018;51.258;6.806;2023-05-02T03:12:12;11.70;90.30
4354;DHT22;11018;51.258;6.806;2023-05-02T03:14:38;11.60;90.30
4354;DHT22;11018;51.258;6.806;2023-05-02T03:17:04;11.70;89.70
4354;DHT22;11018;51.258;6.806;2023-05-02T03:19:30;11.70;89.30
4354;DHT22;11018;51.258;6.806;2023-05-02T03:21:56;11.70;89.70
4354;DHT22;11018;51.258;6.806;2023-05-02T03:24:21;11.60;87.80
4354;DHT22;11018;51.258;6.806;2023-05-02T03:26:47;11.70;88.70
4354;DHT22;11018;51.258;6.806;2023-05-02T03:29:15;11.60;88.20
4354;DHT22;11018;51.258;6.806;2023-05-02T03:31:41;11.70;89.10
4354;DHT22;11018;51.258;6.806;2023-05-02T03:34:06;11.70;88.40
4354;DHT22;11018;51.258;6.806;2023-05-02T03:36:32;11.70;87.90
4354;DHT22;11018;51.258;6.806;2023-05-02T03:38:58;11.80;85.30
4354;DHT22;11018;51.258;6.806;2023-05-02T03:41:23;11.70;84.50
4354;DHT22;11018;51.258;6.806;2023-05-02T03:43:51;11.70;81.30
4354;DHT22;11018;51.258;6.806;2023-05-02T03:46:17;11.70;81.60
4354;DHT22;11018;51.258;6.806;2023-05-02T03:48:42;11.60;80.60
4354;DHT22;11018;51.258;6.806;2023-05-02T03:51:10;11.70;79.80
4354;DHT22;11018;51.258;6.806;2023-05-02T03:53:36;11.60;80.00
4354;DHT22;11018;51.258;6.806;2023-05-02T03:56:02;11.70;80.00
4354;DHT22;11018;51.258;6.806;2023-05-02T03:58:28;11.70;79.60
4354;DHT22;11018;51.258;6.806;2023-05-02T04:00:53;11.70;79.40
4354;DHT22;11018;51.258;6.806;2023-05-02T04:03:20;11.70;80.10
4354;DHT22;11018;51.258;6.806;2023-05-02T04:05:45;11.70;79.70
4354;DHT22;11018;51.258;6.806;2023-05-02T04:08:11;11.70;79.60
4354;DHT22;11018;51.258;6.806;2023-05-02T04:10:37;11.70;79.40
4354;DHT22;11018;51.258;6.806;2023-05-02T04:13:03;11.70;77.40
4354;DHT22;11018;51.258;6.806;2023-05-02T04:15:30;11.80;77.80
4354;DHT22;11018;51.258;6.806;2023-05-02T04:17:59;11.80;78.70
4354;DHT22;11018;51.258;6.806;2023-05-02T04:20:24;11.80;79.20
4354;DHT22;11018;51.258;6.806;2023-05-02T04:22:50;11.80;79.40
4354;DHT22;11018;51.258;6.806;2023-05-02T04:25:16;11.70;79.70
4354;DHT22;11018;51.258;6.806;2023-05-02T04:27:42;11.70;79.70
4354;DHT22;11018;51.258;6.806;2023-05-02T04:30:08;11.70;80.60
4354;DHT22;11018;51.258;6.806;2023-05-02T04:32:36;11.70;81.20
4354;DHT22;11018;51.258;6.806;2023-05-02T04:35:02;11.60;81.60
4354;DHT22;11018;51.258;6.806;2023-05-02T04:37:28;11.60;83.00
4354;DHT22;11018;51.258;6.806;2023-05-02T04:39:54;11.60;83.80
4354;DHT22;11018;51.258;6.806;2023-05-02T04:42:19;11.60;83.80
4354;DHT22;11018;51.258;6.806;2023-05-02T04:44:47;11.60;84.80
4354;DHT22;11018;51.258;6.806;2023-05-02T04:47:12;11.60;84.30
4354;DHT22;11018;51.258;6.806;2023-05-02T04:49:38;11.50;85.30
4354;DHT22;11018;51.258;6.806;2023-05-02T04:52:04;11.60;86.20
4354;DHT22;11018;51.258;6.806;2023-05-02T04:54:32;11.60;86.70
4354;DHT22;11018;51.258;6.806;2023-05-02T04:56:57;11.60;89.00
4354;DHT22;11018;51.258;6.806;2023-05-02T04:59:23;11.50;87.60
4354;DHT22;11018;51.258;6.806;2023-05-02T05:01:49;11.50;88.80
4354;DHT22;11018;51.258;6.806;2023-05-02T05:04:14;11.50;91.50
4354;DHT22;11018;51.258;6.806;2023-05-02T05:06:40;11.50;91.10
4354;DHT22;11018;51.258;6.806;2023-05-02T05:09:05;11.40;92.60
4354;DHT22;11018;51.258;6.806;2023-05-02T05:11:31;11.30;95.20
4354;DHT22;11018;51.258;6.806;2023-05-02T05:13:57;11.20;96.80
4354;DHT22;11018;51.258;6.806;2023-05-02T05:16:22;11.20;98.90
4354;DHT22;11018;51.258;6.806;2023-05-02T05:18:48;11.20;99.90
4354;DHT22;11018;51.258;6.806;2023-05-02T05:21:13;11.20;99.90
4354;DHT22;11018;51.258;6.806;2023-05-02T05:23:39;11.10;99.90
4354;DHT22;11018;51.258;6.806;2023-05-02T05:28:35;11.20;99.90
4354;DHT22;11018;51.258;6.806;2023-05-02T05:31:05;11.20;99.90
4354;DHT22;11018;51.258;6.806;2023-05-02T05:33:32;11.20;99.90
4354;DHT22;11018;51.258;6.806;2023-05-02T05:36:03;11.30;99.90
4354;DHT22;11018;51.258;6.806;2023-05-02T05:38:29;11.10;99.90
4354;DHT22;11018;51.258;6.806;2023-05-02T05:40:55;11.10;99.90
4354;DHT22;11018;51.258;6.806;2023-05-02T05:43:20;11.00;99.90
4354;DHT22;11018;51.258;6.806;2023-05-02T05:45:46;11.00;99.90
4354;DHT22;11018;51.258;6.806;2023-05-02T05:48:11;11.10;99.90
4354;DHT22;11018;51.258;6.806;2023-05-02T05:50:37;11.10;99.90
4354;DHT22;11018;51.258;6.806;2023-05-02T05:53:03;11.20;97.80
4354;DHT22;11018;51.258;6.806;2023-05-02T05:55:28;11.20;97.00
4354;DHT22;11018;51.258;6.806;2023-05-02T05:57:54;11.20;94.40
4354;DHT22;11018;51.258;6.806;2023-05-02T06:00:19;11.30;92.30
4354;DHT22;11018;51.258;6.806;2023-05-02T06:02:48;11.50;91.90
4354;DHT22;11018;51.258;6.806;2023-05-02T06:05:13;11.50;90.80
4354;DHT22;11018;51.258;6.806;2023-05-02T06:07:40;11.50;89.90
4354;DHT22;11018;51.258;6.806;2023-05-02T06:10:05;11.40;92.00
4354;DHT22;11018;51.258;6.806;2023-05-02T06:12:31;11.50;91.50
4354;DHT22;11018;51.258;6.806;2023-05-02T06:14:57;11.50;90.70
4354;DHT22;11018;51.258;6.806;2023-05-02T06:17:22;11.50;89.50
4354;DHT22;11018;51.258;6.806;2023-05-02T06:19:48;11.50;91.20
4354;DHT22;11018;51.258;6.806;2023-05-02T06:22:13;11.30;91.30
4354;DHT22;11018;51.258;6.806;2023-05-02T06:24:39;11.30;93.80
4354;DHT22;11018;51.258;6.806;2023-05-02T06:27:04;11.40;90.00
4354;DHT22;11018;51.258;6.806;2023-05-02T06:29:30;11.50;88.90
4354;DHT22;11018;51.258;6.806;2023-05-02T06:31:55;11.40;82.20
4354;DHT22;11018;51.258;6.806;2023-05-02T06:34:21;11.40;80.20
4354;DHT22;11018;51.258;6.806;2023-05-02T06:36:47;11.40;78.10
4354;DHT22;11018;51.258;6.806;2023-05-02T06:39:12;11.50;78.20
4354;DHT22;11018;51.258;6.806;2023-05-02T06:41:38;11.60;73.00
4354;DHT22;11018;51.258;6.806;2023-05-02T06:44:04;11.50;71.60
4354;DHT22;11018;51.258;6.806;2023-05-02T06:46:29;11.50;68.80
4354;DHT22;11018;51.258;6.806;2023-05-02T06:48:55;11.60;69.30
4354;DHT22;11018;51.258;6.806;2023-05-02T06:51:21;11.60;68.20
4354;DHT22;11018;51.258;6.806;2023-05-02T06:53:47;11.60;66.50
4354;DHT22;11018;51.258;6.806;2023-05-02T06:56:12;11.60;64.70
4354;DHT22;11018;51.258;6.806;2023-05-02T06:58:38;11.60;65.10
4354;DHT22;11018;51.258;6.806;2023-05-02T07:01:04;11.50;63.50
4354;DHT22;11018;51.258;6.806;2023-05-02T07:03:29;11.50;62.40
4354;DHT22;11018;51.258;6.806;2023-05-02T07:05:55;11.50;62.00
4354;DHT22;11018;51.258;6.806;2023-05-02T07:08:21;11.60;64.20
4354;DHT22;11018;51.258;6.806;2023-05-02T07:10:48;11.80;63.80
4354;DHT22;11018;51.258;6.806;2023-05-02T07:13:14;11.80;64.40
4354;DHT22;11018;51.258;6.806;2023-05-02T07:15:40;11.70;64.00
4354;DHT22;11018;51.258;6.806;2023-05-02T07:18:05;11.90;62.70
4354;DHT22;11018;51.258;6.806;2023-05-02T07:20:31;12.00;59.80
4354;DHT22;11018;51.258;6.806;2023-05-02T07:22:57;12.00;59.70
4354;DHT22;11018;51.258;6.806;2023-05-02T07:25:22;12.20;58.80
4354;DHT22;11018;51.258;6.806;2023-05-02T07:27:48;12.30;59.20
4354;DHT22;11018;51.258;6.806;2023-05-02T07:30:13;12.50;61.60
4354;DHT22;11018;51.258;6.806;2023-05-02T07:32:39;12.20;64.10
4354;DHT22;11018;51.258;6.806;2023-05-02T07:35:05;12.20;65.00
4354;DHT22;11018;51.258;6.806;2023-05-02T07:37:34;12.20;65.50
4354;DHT22;11018;51.258;6.806;2023-05-02T07:39:59;12.10;65.70
4354;DHT22;11018;51.258;6.806;2023-05-02T07:42:31;11.90;66.90
4354;DHT22;11018;51.258;6.806;2023-05-02T07:44:58;11.50;58.50
4354;DHT22;11018;51.258;6.806;2023-05-02T07:47:24;11.20;59.00
4354;DHT22;11018;51.258;6.806;2023-05-02T07:49:51;11.10;59.50
4354;DHT22;11018;51.258;6.806;2023-05-02T07:52:18;11.20;58.70
4354;DHT22;11018;51.258;6.806;2023-05-02T07:54:43;11.30;58.70
4354;DHT22;11018;51.258;6.806;2023-05-02T07:57:10;11.40;58.20
4354;DHT22;11018;51.258;6.806;2023-05-02T07:59:36;11.50;55.40
4354;DHT22;11018;51.258;6.806;2023-05-02T08:02:01;11.40;55.60
4354;DHT22;11018;51.258;6.806;2023-05-02T08:04:27;11.30;57.00
4354;DHT22;11018;51.258;6.806;2023-05-02T08:06:53;11.30;56.80
4354;DHT22;11018;51.258;6.806;2023-05-02T08:09:19;11.30;55.00
4354;DHT22;11018;51.258;6.806;2023-05-02T08:11:45;11.30;55.60
4354;DHT22;11018;51.258;6.806;2023-05-02T08:14:11;11.50;54.00
4354;DHT22;11018;51.258;6.806;2023-05-02T08:16:36;11.40;51.60
4354;DHT22;11018;51.258;6.806;2023-05-02T08:19:02;11.40;51.80
4354;DHT22;11018;51.258;6.806;2023-05-02T08:21:27;11.50;52.40
4354;DHT22;11018;51.258;6.806;2023-05-02T08:23:57;11.40;51.10
4354;DHT22;11018;51.258;6.806;2023-05-02T08:26:22;11.50;50.30
4354;DHT22;11018;51.258;6.806;2023-05-02T08:28:52;11.50;48.40
4354;DHT22;11018;51.258;6.806;2023-05-02T08:31:18;11.30;48.70
4354;DHT22;11018;51.258;6.806;2023-05-02T08:33:44;11.30;48.40
4354;DHT22;11018;51.258;6.806;2023-05-02T08:36:13;11.20;49.20
4354;DHT22;11018;51.258;6.806;2023-05-02T08:38:40;11.30;48.30
4354;DHT22;11018;51.258;6.806;2023-05-02T08:41:16;11.40;46.90
4354;DHT22;11018;51.258;6.806;2023-05-02T08:43:43;11.40;46.20
4354;DHT22;11018;51.258;6.806;2023-05-02T08:46:11;11.60;46.60
4354;DHT22;11018;51.258;6.806;2023-05-02T08:48:38;11.90;42.60
4354;DHT22;11018;51.258;6.806;2023-05-02T08:51:08;12.30;40.90
4354;DHT22;11018;51.258;6.806;2023-05-02T08:53:34;12.30;39.40
4354;DHT22;11018;51.258;6.806;2023-05-02T08:56:01;12.10;41.30
4354;DHT22;11018;51.258;6.806;2023-05-02T08:58:26;12.20;39.50
4354;DHT22;11018;51.258;6.806;2023-05-02T09:00:55;12.10;40.20
4354;DHT22;11018;51.258;6.806;2023-05-02T09:03:29;12.30;40.40
4354;DHT22;11018;51.258;6.806;2023-05-02T09:06:07;12.40;37.60
4354;DHT22;11018;51.258;6.806;2023-05-02T09:08:34;12.40;37.40
4354;DHT22;11018;51.258;6.806;2023-05-02T09:11:03;12.40;38.30
4354;DHT22;11018;51.258;6.806;2023-05-02T09:13:31;12.40;40.90
4354;DHT22;11018;51.258;6.806;2023-05-02T09:16:04;12.50;41.70
4354;DHT22;11018;51.258;6.806;2023-05-02T09:18:35;12.70;39.80
4354;DHT22;11018;51.258;6.806;2023-05-02T09:21:24;12.80;40.40
4354;DHT22;11018;51.258;6.806;2023-05-02T09:23:55;12.90;39.20
4354;DHT22;11018;51.258;6.806;2023-05-02T09:26:22;12.90;37.20
4354;DHT22;11018;51.258;6.806;2023-05-02T09:28:50;13.00;36.30
4354;DHT22;11018;51.258;6.806;2023-05-02T09:31:21;12.80;35.70
4354;DHT22;11018;51.258;6.806;2023-05-02T09:33:47;13.00;36.50
4354;DHT22;11018;51.258;6.806;2023-05-02T09:36:15;13.20;34.60
4354;DHT22;11018;51.258;6.806;2023-05-02T09:38:42;13.20;33.40
4354;DHT22;11018;51.258;6.806;2023-05-02T09:41:08;13.40;33.70
4354;DHT22;11018;51.258;6.806;2023-05-02T09:43:34;13.70;30.90
4354;DHT22;11018;51.258;6.806;2023-05-02T09:46:05;14.10;29.90
4354;DHT22;11018;51.258;6.806;2023-05-02T09:48:33;14.10;27.60
4354;DHT22;11018;51.258;6.806;2023-05-02T09:51:19;13.70;28.50
4354;DHT22;11018;51.258;6.806;2023-05-02T09:53:45;13.70;30.40
4354;DHT22;11018;51.258;6.806;2023-05-02T09:56:11;13.40;28.10
4354;DHT22;11018;51.258;6.806;2023-05-02T09:58:37;13.10;29.70
4354;DHT22;11018;51.258;6.806;2023-05-02T10:01:03;13.10;28.80
4354;DHT22;11018;51.258;6.806;2023-05-02T10:03:29;12.90;26.10
4354;DHT22;11018;51.258;6.806;2023-05-02T10:05:56;13.00;26.40
4354;DHT22;11018;51.258;6.806;2023-05-02T10:08:26;13.10;25.50
4354;DHT22;11018;51.258;6.806;2023-05-02T10:10:57;13.20;27.30
4354;DHT22;11018;51.258;6.806;2023-05-02T10:13:24;13.60;26.10
4354;DHT22;11018;51.258;6.806;2023-05-02T10:16:02;13.40;24.60
4354;DHT22;11018;51.258;6.806;2023-05-02T10:18:47;13.50;25.20
4354;DHT22;11018;51.258;6.806;2023-05-02T10:21:24;13.90;24.40
4354;DHT22;11018;51.258;6.806;2023-05-02T10:23:52;13.70;22.90
4354;DHT22;11018;51.258;6.806;2023-05-02T10:26:18;13.40;25.50
4354;DHT22;11018;51.258;6.806;2023-05-02T10:28:46;13.20;24.30
4354;DHT22;11018;51.258;6.806;2023-05-02T10:31:13;13.10;25.20
4354;DHT22;11018;51.258;6.806;2023-05-02T10:33:39;13.60;24.70
4354;DHT22;11018;51.258;6.806;2023-05-02T10:36:08;13.80;21.60
4354;DHT22;11018;51.258;6.806;2023-05-02T10:38:35;13.90;21.70
4354;DHT22;11018;51.258;6.806;2023-05-02T10:41:19;14.30;20.00
4354;DHT22;11018;51.258;6.806;2023-05-02T10:43:47;14.40;18.60
4354;DHT22;11018;51.258;6.806;2023-05-02T10:49:08;13.80;19.20
4354;DHT22;11018;51.258;6.806;2023-05-02T10:51:35;13.50;21.20
4354;DHT22;11018;51.258;6.806;2023-05-02T10:54:23;13.30;22.40
4354;DHT22;11018;51.258;6.806;2023-05-02T10:57:02;13.00;23.30
4354;DHT22;11018;51.258;6.806;2023-05-02T10:59:34;12.70;23.20
4354;DHT22;11018;51.258;6.806;2023-05-02T11:02:01;12.80;24.10
4354;DHT22;11018;51.258;6.806;2023-05-02T11:04:57;13.40;21.50
4354;DHT22;11018;51.258;6.806;2023-05-02T11:07:23;13.20;21.20
4354;DHT22;11018;51.258;6.806;2023-05-02T11:09:48;13.50;20.80
4354;DHT22;11018;51.258;6.806;2023-05-02T11:12:49;13.50;20.90
4354;DHT22;11018;51.258;6.806;2023-05-02T11:18:09;13.70;20.40
4354;DHT22;11018;51.258;6.806;2023-05-02T11:20:39;13.30;22.60
4354;DHT22;11018;51.258;6.806;2023-05-02T11:25:43;13.30;22.80
4354;DHT22;11018;51.258;6.806;2023-05-02T11:31:01;13.20;23.10
4354;DHT22;11018;51.258;6.806;2023-05-02T11:33:28;13.10;23.30
4354;DHT22;11018;51.258;6.806;2023-05-02T11:35:53;12.70;23.70
4354;DHT22;11018;51.258;6.806;2023-05-02T11:38:21;12.80;23.60
4354;DHT22;11018;51.258;6.806;2023-05-02T11:40:58;12.90;22.80
4354;DHT22;11018;51.258;6.806;2023-05-02T11:43:26;13.00;21.50
4354;DHT22;11018;51.258;6.806;2023-05-02T11:45:53;13.20;20.90
4354;DHT22;11018;51.258;6.806;2023-05-02T11:48:19;13.10;20.60
4354;DHT22;11018;51.258;6.806;2023-05-02T11:50:48;13.20;20.30
4354;DHT22;11018;51.258;6.806;2023-05-02T11:53:16;13.50;20.30
4354;DHT22;11018;51.258;6.806;2023-05-02T11:55:49;13.80;19.10
4354;DHT22;11018;51.258;6.806;2023-05-02T11:58:16;14.00;18.00
4354;DHT22;11018;51.258;6.806;2023-05-02T12:00:43;13.70;18.50
4354;DHT22;11018;51.258;6.806;2023-05-02T12:03:31;14.00;19.20
4354;DHT22;11018;51.258;6.806;2023-05-02T12:06:13;14.30;17.90
4354;DHT22;11018;51.258;6.806;2023-05-02T12:08:40;14.40;16.30
4354;DHT22;11018;51.258;6.806;2023-05-02T12:11:07;14.20;16.60
4354;DHT22;11018;51.258;6.806;2023-05-02T12:13:33;14.20;17.90
4354;DHT22;11018;51.258;6.806;2023-05-02T12:15:59;14.60;16.10
4354;DHT22;11018;51.258;6.806;2023-05-02T12:18:25;15.10;14.90
4354;DHT22;11018;51.258;6.806;2023-05-02T12:20:53;14.80;14.00
4354;DHT22;11018;51.258;6.806;2023-05-02T12:23:20;14.20;14.70
4354;DHT22;11018;51.258;6.806;2023-05-02T12:25:47;13.70;16.10
4354;DHT22;11018;51.258;6.806;2023-05-02T12:28:15;13.80;16.30
4354;DHT22;11018;51.258;6.806;2023-05-02T12:30:41;13.80;16.90
4354;DHT22;11018;51.258;6.806;2023-05-02T12:33:07;13.80;17.00
4354;DHT22;11018;51.258;6.806;2023-05-02T12:35:34;14.10;16.90
4354;DHT22;11018;51.258;6.806;2023-05-02T12:38:17;14.10;16.20
4354;DHT22;11018;51.258;6.806;2023-05-02T12:40:51;13.90;16.70
4354;DHT22;11018;51.258;6.806;2023-05-02T12:43:18;13.80;17.00
4354;DHT22;11018;51.258;6.806;2023-05-02T12:45:44;13.90;17.10
4354;DHT22;11018;51.258;6.806;2023-05-02T12:48:23;14.40;15.90
4354;DHT22;11018;51.258;6.806;2023-05-02T12:50:50;14.20;15.80
4354;DHT22;11018;51.258;6.806;2023-05-02T12:53:15;14.00;16.10
4354;DHT22;11018;51.258;6.806;2023-05-02T12:55:41;14.00;15.50
4354;DHT22;11018;51.258;6.806;2023-05-02T12:58:09;14.50;15.30
4354;DHT22;11018;51.258;6.806;2023-05-02T13:00:41;15.00;13.50
4354;DHT22;11018;51.258;6.806;2023-05-02T13:03:08;14.70;13.70
4354;DHT22;11018;51.258;6.806;2023-05-02T13:05:35;14.70;13.80
4354;DHT22;11018;51.258;6.806;2023-05-02T13:08:01;14.30;14.40
4354;DHT22;11018;51.258;6.806;2023-05-02T13:10:26;14.50;14.50
4354;DHT22;11018;51.258;6.806;2023-05-02T13:12:53;14.30;14.30
4354;DHT22;11018;51.258;6.806;2023-05-02T13:15:18;13.80;13.90
4354;DHT22;11018;51.258;6.806;2023-05-02T13:17:44;13.60;14.40
4354;DHT22;11018;51.258;6.806;2023-05-02T13:20:11;13.60;14.30
4354;DHT22;11018;51.258;6.806;2023-05-02T13:22:37;13.90;14.00
4354;DHT22;11018;51.258;6.806;2023-05-02T13:25:06;14.20;13.60
4354;DHT22;11018;51.258;6.806;2023-05-02T13:27:32;14.00;14.50
4354;DHT22;11018;51.258;6.806;2023-05-02T13:30:01;14.20;14.10
4354;DHT22;11018;51.258;6.806;2023-05-02T13:32:27;14.80;12.80
4354;DHT22;11018;51.258;6.806;2023-05-02T13:34:53;15.30;11.60
4354;DHT22;11018;51.258;6.806;2023-05-02T13:37:18;15.90;10.90
4354;DHT22;11018;51.258;6.806;2023-05-02T13:39:44;15.90;10.00
4354;DHT22;11018;51.258;6.806;2023-05-02T13:42:10;16.50;10.90
4354;DHT22;11018;51.258;6.806;2023-05-02T13:44:36;16.90;8.00
4354;DHT22;11018;51.258;6.806;2023-05-02T13:47:01;16.20;9.40
4354;DHT22;11018;51.258;6.806;2023-05-02T13:49:27;15.80;10.20
4354;DHT22;11018;51.258;6.806;2023-05-02T13:51:52;15.70;10.10
4354;DHT22;11018;51.258;6.806;2023-05-02T13:54:18;16.00;9.40
4354;DHT22;11018;51.258;6.806;2023-05-02T13:56:44;16.00;9.50
4354;DHT22;11018;51.258;6.806;2023-05-02T13:59:09;16.00;10.60
4354;DHT22;11018;51.258;6.806;2023-05-02T14:01:35;15.40;11.00
4354;DHT22;11018;51.258;6.806;2023-05-02T14:04:01;15.50;11.10
4354;DHT22;11018;51.258;6.806;2023-05-02T14:06:33;16.30;10.50
4354;DHT22;11018;51.258;6.806;2023-05-02T14:08:59;16.20;9.80
4354;DHT22;11018;51.258;6.806;2023-05-02T14:11:25;17.30;8.60
4354;DHT22;11018;51.258;6.806;2023-05-02T14:13:50;16.80;8.50
4354;DHT22;11018;51.258;6.806;2023-05-02T14:16:16;15.50;10.40
4354;DHT22;11018;51.258;6.806;2023-05-02T14:18:42;15.00;11.40
4354;DHT22;11018;51.258;6.806;2023-05-02T14:21:09;14.50;12.70
4354;DHT22;11018;51.258;6.806;2023-05-02T14:23:35;14.50;12.80
4354;DHT22;11018;51.258;6.806;2023-05-02T14:26:01;14.40;12.40
4354;DHT22;11018;51.258;6.806;2023-05-02T14:28:26;14.50;12.50
4354;DHT22;11018;51.258;6.806;2023-05-02T14:30:52;14.80;12.00
4354;DHT22;11018;51.258;6.806;2023-05-02T14:33:18;14.50;12.60
4354;DHT22;11018;51.258;6.806;2023-05-02T14:35:43;14.70;13.10
4354;DHT22;11018;51.258;6.806;2023-05-02T14:38:09;15.50;11.20
4354;DHT22;11018;51.258;6.806;2023-05-02T14:40:34;15.00;11.20
4354;DHT22;11018;51.258;6.806;2023-05-02T14:43:00;15.30;10.60
4354;DHT22;11018;51.258;6.806;2023-05-02T14:45:26;15.80;9.20
4354;DHT22;11018;51.258;6.806;2023-05-02T14:47:51;15.50;8.40
4354;DHT22;11018;51.258;6.806;2023-05-02T14:50:17;16.00;8.90
4354;DHT22;11018;51.258;6.806;2023-05-02T14:52:43;16.90;7.50
4354;DHT22;11018;51.258;6.806;2023-05-02T14:55:12;17.60;6.30
4354;DHT22;11018;51.258;6.806;2023-05-02T14:57:37;17.80;6.10
4354;DHT22;11018;51.258;6.806;2023-05-02T15:00:04;18.60;4.60
4354;DHT22;11018;51.258;6.806;2023-05-02T15:02:32;18.50;5.00
4354;DHT22;11018;51.258;6.806;2023-05-02T15:04:58;17.80;4.80
4354;DHT22;11018;51.258;6.806;2023-05-02T15:07:23;16.90;6.40
4354;DHT22;11018;51.258;6.806;2023-05-02T15:09:49;17.30;6.60
4354;DHT22;11018;51.258;6.806;2023-05-02T15:12:14;17.80;5.30
4354;DHT22;11018;51.258;6.806;2023-05-02T15:14:40;19.10;5.80
4354;DHT22;11018;51.258;6.806;2023-05-02T15:17:05;19.50;2.70
4354;DHT22;11018;51.258;6.806;2023-05-02T15:19:32;18.80;3.40
4354;DHT22;11018;51.258;6.806;2023-05-02T15:21:57;17.90;5.20
4354;DHT22;11018;51.258;6.806;2023-05-02T15:24:23;17.90;5.60
4354;DHT22;11018;51.258;6.806;2023-05-02T15:26:49;18.50;5.50
4354;DHT22;11018;51.258;6.806;2023-05-02T15:29:15;18.90;5.10
4354;DHT22;11018;51.258;6.806;2023-05-02T15:31:41;18.20;4.50
4354;DHT22;11018;51.258;6.806;2023-05-02T15:34:07;18.10;5.60
4354;DHT22;11018;51.258;6.806;2023-05-02T15:36:32;17.40;6.10
4354;DHT22;11018;51.258;6.806;2023-05-02T15:39:02;17.90;6.40
4354;DHT22;11018;51.258;6.806;2023-05-02T15:41:27;17.30;6.10
4354;DHT22;11018;51.258;6.806;2023-05-02T15:43:53;17.50;7.30
4354;DHT22;11018;51.258;6.806;2023-05-02T15:46:18;17.40;5.60
4354;DHT22;11018;51.258;6.806;2023-05-02T15:48:44;17.70;5.80
4354;DHT22;11018;51.258;6.806;2023-05-02T15:51:10;17.80;5.70
4354;DHT22;11018;51.258;6.806;2023-05-02T15:53:36;17.50;5.50
4354;DHT22;11018;51.258;6.806;2023-05-02T15:56:07;17.60;6.00
4354;DHT22;11018;51.258;6.806;2023-05-02T15:58:34;18.30;5.20
4354;DHT22;11018;51.258;6.806;2023-05-02T16:00:59;17.70;5.30
4354;DHT22;11018;51.258;6.806;2023-05-02T16:03:25;16.90;6.10
4354;DHT22;11018;51.258;6.806;2023-05-02T16:05:51;17.20;6.80
4354;DHT22;11018;51.258;6.806;2023-05-02T16:08:17;17.20;6.80
4354;DHT22;11018;51.258;6.806;2023-05-02T16:10:43;17.10;6.50
4354;DHT22;11018;51.258;6.806;2023-05-02T16:13:09;17.30;7.30
4354;DHT22;11018;51.258;6.806;2023-05-02T16:15:34;18.10;6.20